Time;durP1;ratioP1;P1;durP2;ratioP2;P2;SDS_P1;SDS_P2;PMS_P1;PMS_P2;Temp;Humidity;BMP_temperature;BMP_pressure;BME280_temperature;BME280_humidity;BME280_pressure;Samples;Min_cycle;Max_cycle;Signal;HPM_P1;HPM_P2
2021/07/26 00:00:07;;;;;;;;;;;23.30;76.40;23.30;99145.00;;;;346014;28;82563;-90
2021/07/26 00:00:19;;;;;;;;;;;23.30;76.60;23.40;99141.00;;;;343876;28;97074;-91
2021/07/26 00:00:30;;;;;;;;;;;23.30;76.80;23.20;99135.00;;;;340665;28;82487;-90
2021/07/26 00:00:42;;;;;;;;;;;23.30;77.10;23.20;99138.00;;;;346231;28;95563;-89
2021/07/26 00:00:55;;;;;;;;;;;23.30;77.20;23.20;99147.00;;;;345325;28;83455;-90
2021/07/26 00:01:14;;;;;;;;;;;23.30;77.20;23.20;99136.00;;;;339803;28;96727;-90
2021/07/26 00:01:26;;;;;;;;;;;23.30;77.30;23.30;99144.00;;;;345984;28;83483;-90
2021/07/26 00:01:38;;;;;;;;;;;23.30;77.20;23.30;99146.00;;;;343961;28;96094;-90
2021/07/26 00:01:51;;;;;;;;;;;23.30;77.20;23.30;99136.00;;;;345314;28;82589;-90
2021/07/26 00:02:04;;;;;;;;;;;23.30;77.70;23.30;99135.00;;;;344977;28;96894;-90
2021/07/26 00:02:17;;;;;;;;;;;23.30;77.70;23.30;99144.00;;;;343225;28;83480;-90
2021/07/26 00:02:29;;;;;;;;;;;23.20;77.60;23.20;99141.00;;;;344974;28;97582;-90
2021/07/26 00:02:41;;;;;;;;;;;23.20;77.70;23.20;99139.00;;;;346232;28;82500;-90
2021/07/26 00:02:53;;;;;;;;;;;23.20;77.40;23.10;99141.00;;;;343805;28;96250;-90
2021/07/26 00:03:04;;;;;;;;;;;23.20;77.60;23.20;99136.00;;;;344769;28;82437;-90
2021/07/26 00:03:16;;;;;;;;;;;23.20;77.40;23.20;99135.00;;;;346686;28;97115;-90
2021/07/26 00:03:28;;;;;;;;;;;23.20;77.30;23.10;99135.00;;;;341990;28;83451;-89
2021/07/26 00:03:40;;;;;;;;;;;23.20;77.50;23.10;99141.00;;;;343923;28;96244;-90
2021/07/26 00:03:52;;;;;;;;;;;23.20;77.60;23.10;99140.00;;;;348503;27;83459;-90
2021/07/26 00:04:04;;;;;;;;;;;23.20;77.80;23.10;99138.00;;;;346874;27;97461;-90
2021/07/26 00:04:17;;;;;;;;;;;23.20;77.90;23.10;99136.00;;;;344148;28;82600;-90
2021/07/26 00:04:29;;;;;;;;;;;23.20;78.00;23.20;99139.00;;;;342558;28;96895;-90
2021/07/26 00:04:41;;;;;;;;;;;23.20;78.00;23.20;99141.00;;;;344736;28;83488;-90
2021/07/26 00:04:53;;;;;;;;;;;23.20;77.90;23.20;99140.00;;;;343794;28;95799;-90
2021/07/26 00:05:06;;;;;;;;;;;23.20;77.80;23.10;99139.00;;;;346158;28;82515;-90
2021/07/26 00:05:17;;;;;;;;;;;23.20;78.30;23.00;99138.00;;;;345334;28;97014;-90
2021/07/26 00:05:29;;;;;;;;;;;23.10;78.20;23.00;99141.00;;;;346113;28;83433;-90
2021/07/26 00:05:41;;;;;;;;;;;23.10;78.10;23.00;99142.00;;;;344018;28;96157;-90
2021/07/26 00:05:56;;;;;;;;;;;23.10;78.30;23.10;99145.00;;;;343335;28;83405;-91
2021/07/26 00:06:19;;;;;;;;;;;23.10;78.00;23.10;99140.00;;;;343968;28;95664;-90
2021/07/26 00:06:30;;;;;;;;;;;23.10;78.30;23.10;99137.00;;;;346179;28;82484;-89
2021/07/26 00:06:43;;;;;;;;;;;23.10;78.30;23.00;99138.00;;;;343740;28;96463;-90
2021/07/26 00:06:55;;;;;;;;;;;23.10;78.30;23.10;99136.00;;;;347325;28;82597;-91
2021/07/26 00:07:07;;;;;;;;;;;23.10;78.20;23.10;99136.00;;;;342444;28;95821;-91
2021/07/26 00:07:18;;;;;;;;;;;23.10;78.60;23.00;99133.00;;;;344136;28;82564;-90
2021/07/26 00:07:30;;;;;;;;;;;23.10;78.90;23.00;99139.00;;;;343921;28;95539;-90
2021/07/26 00:07:42;;;;;;;;;;;23.10;78.80;23.00;99141.00;;;;343048;28;82657;-90
2021/07/26 00:07:55;;;;;;;;;;;23.10;78.80;23.00;99140.00;;;;340972;28;96989;-91
2021/07/26 00:08:06;;;;;;;;;;;23.10;79.00;23.00;99138.00;;;;344541;28;83326;-90
2021/07/26 00:08:18;;;;;;;;;;;23.10;79.10;23.10;99142.00;;;;343902;28;97117;-90
2021/07/26 00:08:30;;;;;;;;;;;23.10;78.80;23.20;99145.00;;;;347340;28;83327;-90
2021/07/26 00:08:42;;;;;;;;;;;23.10;79.20;23.20;99144.00;;;;346613;28;97727;-90
2021/07/26 00:08:54;;;;;;;;;;;23.10;79.30;23.20;99140.00;;;;343280;28;83494;-90
2021/07/26 00:09:05;;;;;;;;;;;23.10;79.30;23.10;99142.00;;;;343820;28;96763;-90
2021/07/26 00:09:17;;;;;;;;;;;23.10;79.50;23.20;99138.00;;;;344712;28;83536;-90
2021/07/26 00:09:29;;;;;;;;;;;23.10;79.30;23.10;99140.00;;;;345277;28;95611;-90
2021/07/26 00:09:41;;;;;;;;;;;23.10;79.30;23.10;99138.00;;;;346017;28;83429;-90
2021/07/26 00:09:53;;;;;;;;;;;23.10;78.90;23.00;99146.00;;;;344675;28;95744;-90
2021/07/26 00:10:06;;;;;;;;;;;23.10;79.10;23.00;99146.00;;;;344592;28;83320;-90
2021/07/26 00:10:18;;;;;;;;;;;23.10;78.90;23.00;99143.00;;;;345156;28;95730;-90
2021/07/26 00:10:30;;;;;;;;;;;23.10;78.90;23.00;99147.00;;;;346054;28;82455;-90
2021/07/26 00:10:42;;;;;;;;;;;23.10;79.00;23.10;99144.00;;;;345174;28;97545;-90
2021/07/26 00:11:01;;;;;;;;;;;23.00;79.00;23.10;99143.00;;;;344360;28;83534;-90
2021/07/26 00:11:12;;;;;;;;;;;23.10;79.10;23.20;99146.00;;;;346694;28;95899;-90
2021/07/26 00:11:24;;;;;;;;;;;23.10;79.00;23.30;99141.00;;;;344641;28;82503;-90
2021/07/26 00:11:36;;;;;;;;;;;23.10;79.00;23.30;99147.00;;;;343599;28;97169;-90
2021/07/26 00:11:48;;;;;;;;;;;23.10;79.10;23.20;99149.00;;;;345940;28;83452;-90
2021/07/26 00:12:00;;;;;;;;;;;23.10;78.90;23.20;99146.00;;;;343816;28;96484;-90
2021/07/26 00:12:12;;;;;;;;;;;23.10;78.90;23.00;99142.00;;;;344621;28;83397;-90
2021/07/26 00:12:23;;;;;;;;;;;23.10;79.00;23.10;99145.00;;;;343955;28;97428;-90
2021/07/26 00:12:36;;;;;;;;;;;23.10;79.40;23.20;99146.00;;;;342938;28;83385;-90
2021/07/26 00:12:48;;;;;;;;;;;23.10;79.30;23.20;99144.00;;;;344190;28;96867;-90
2021/07/26 00:13:00;;;;;;;;;;;23.10;79.30;23.20;99147.00;;;;344914;28;83464;-90
2021/07/26 00:13:11;;;;;;;;;;;23.10;79.10;23.20;99143.00;;;;342559;28;95646;-90
2021/07/26 00:13:23;;;;;;;;;;;23.10;79.00;23.10;99145.00;;;;346076;28;83370;-90
2021/07/26 00:13:35;;;;;;;;;;;23.10;79.20;23.00;99140.00;;;;343792;28;97045;-90
2021/07/26 00:13:47;;;;;;;;;;;23.10;79.40;23.00;99142.00;;;;344186;28;82458;-91
2021/07/26 00:13:59;;;;;;;;;;;23.10;79.70;23.10;99146.00;;;;342412;28;95001;-90
2021/07/26 00:14:11;;;;;;;;;;;23.10;79.50;23.20;99141.00;;;;346006;28;83465;-91
2021/07/26 00:14:23;;;;;;;;;;;23.10;79.30;23.30;99138.00;;;;343937;28;96252;-90
2021/07/26 00:14:35;;;;;;;;;;;23.10;79.40;23.30;99146.00;;;;345945;28;82404;-91
2021/07/26 00:14:47;;;;;;;;;;;23.10;79.50;23.20;99146.00;;;;345228;28;97653;-90
2021/07/26 00:15:00;;;;;;;;;;;23.10;79.30;23.10;99144.00;;;;342934;28;83577;-90
2021/07/26 00:15:12;;;;;;;;;;;23.10;79.50;23.10;99146.00;;;;343921;28;96273;-90
2021/07/26 00:15:24;;;;;;;;;;;23.10;79.60;23.20;99145.00;;;;346101;28;83373;-90
2021/07/26 00:15:36;;;;;;;;;;;23.10;79.30;23.20;99146.00;;;;343754;28;97035;-90
2021/07/26 00:15:47;;;;;;;;;;;23.10;79.50;23.30;99146.00;;;;345129;28;82654;-90
2021/07/26 00:15:59;;;;;;;;;;;23.20;79.80;23.20;99145.00;;;;341009;28;96626;-90
2021/07/26 00:16:11;;;;;;;;;;;23.10;79.70;23.20;99140.00;;;;344607;28;83490;-91
2021/07/26 00:16:23;;;;;;;;;;;23.10;79.50;23.20;99139.00;;;;342495;28;96667;-91
2021/07/26 00:16:35;;;;;;;;;;;23.10;79.40;23.20;99140.00;;;;346035;28;83341;-90
2021/07/26 00:16:46;;;;;;;;;;;23.10;79.50;23.20;99144.00;;;;342477;28;96170;-92
2021/07/26 00:16:58;;;;;;;;;;;23.10;79.80;23.20;99141.00;;;;343237;28;83473;-90
2021/07/26 00:17:10;;;;;;;;;;;23.10;79.50;23.30;99143.00;;;;346655;28;95923;-90
2021/07/26 00:17:22;;;;;;;;;;;23.10;79.40;23.20;99147.00;;;;346087;28;83369;-90
2021/07/26 00:17:34;;;;;;;;;;;23.10;79.60;23.30;99148.00;;;;345002;28;96308;-90
2021/07/26 00:17:45;;;;;;;;;;;23.10;79.40;23.30;99143.00;;;;344768;28;83164;-91
2021/07/26 00:17:57;;;;;;;;;;;23.10;79.70;23.40;99142.00;;;;343859;28;96669;-91
2021/07/26 00:18:09;;;;;;;;;;;23.20;79.80;23.40;99140.00;;;;344363;28;83667;-90
2021/07/26 00:18:21;;;;;;;;;;;23.20;79.80;23.40;99147.00;;;;342525;28;95897;-90
2021/07/26 00:18:33;;;;;;;;;;;23.20;79.90;23.30;99146.00;;;;342019;28;83421;-90
2021/07/26 00:18:45;;;;;;;;;;;23.20;79.80;23.40;99141.00;;;;343049;28;95941;-90
2021/07/26 00:18:57;;;;;;;;;;;23.20;79.70;23.40;99143.00;;;;346904;28;83537;-90
2021/07/26 00:19:09;;;;;;;;;;;23.20;79.70;23.20;99139.00;;;;346562;28;95499;-90
2021/07/26 00:19:21;;;;;;;;;;;23.20;79.70;23.30;99144.00;;;;347133;28;83586;-91
2021/07/26 00:19:32;;;;;;;;;;;23.20;79.60;23.40;99139.00;;;;342538;28;96265;-90
2021/07/26 00:19:44;;;;;;;;;;;23.20;79.60;23.40;99147.00;;;;345969;28;82593;-90
2021/07/26 00:19:56;;;;;;;;;;;23.30;79.60;23.40;99144.00;;;;345110;28;95493;-90
2021/07/26 00:20:10;;;;;;;;;;;23.30;79.50;23.40;99142.00;;;;345909;28;83630;-90
2021/07/26 00:20:22;;;;;;;;;;;23.30;79.60;23.30;99146.00;;;;343741;28;96986;-91
2021/07/26 00:20:34;;;;;;;;;;;23.20;79.40;23.40;99139.00;;;;344697;28;82569;-90
2021/07/26 00:20:46;;;;;;;;;;;23.30;79.40;23.40;99140.00;;;;342437;28;97218;-90
2021/07/26 00:20:58;;;;;;;;;;;23.30;79.40;23.40;99141.00;;;;345728;28;82530;-90
2021/07/26 00:21:10;;;;;;;;;;;23.30;79.40;23.40;99139.00;;;;346611;28;96645;-90
2021/07/26 00:21:22;;;;;;;;;;;23.30;79.40;23.40;99138.00;;;;344620;28;83487;-90
2021/07/26 00:21:34;;;;;;;;;;;23.30;79.40;23.40;99140.00;;;;345158;28;96706;-91
2021/07/26 00:21:46;;;;;;;;;;;23.30;79.40;23.40;99137.00;;;;345471;28;82456;-90
2021/07/26 00:21:57;;;;;;;;;;;23.30;79.30;23.40;99130.00;;;;343807;28;94819;-90
2021/07/26 00:22:09;;;;;;;;;;;23.40;79.40;23.40;99137.00;;;;347283;28;83468;-90
2021/07/26 00:22:21;;;;;;;;;;;23.30;79.40;23.40;99143.00;;;;346448;28;96480;-89
2021/07/26 00:22:33;;;;;;;;;;;23.40;79.40;23.40;99139.00;;;;344621;28;83429;-90
2021/07/26 00:22:45;;;;;;;;;;;23.30;79.30;23.40;99138.00;;;;344830;28;96371;-90
2021/07/26 00:22:57;;;;;;;;;;;23.30;79.40;23.20;99137.00;;;;343205;28;83543;-90
2021/07/26 00:23:09;;;;;;;;;;;23.30;79.50;23.30;99144.00;;;;345167;28;96612;-90
2021/07/26 00:23:21;;;;;;;;;;;23.30;79.40;23.20;99137.00;;;;343308;28;83415;-90
2021/07/26 00:23:33;;;;;;;;;;;23.30;79.60;23.20;99138.00;;;;343495;28;96960;-91
2021/07/26 00:23:45;;;;;;;;;;;23.30;79.60;23.30;99140.00;;;;347468;28;82492;-90
2021/07/26 00:23:56;;;;;;;;;;;23.30;79.50;23.30;99136.00;;;;345280;28;97159;-90
2021/07/26 00:24:08;;;;;;;;;;;23.30;79.40;23.30;99128.00;;;;346004;28;82480;-90
2021/07/26 00:24:20;;;;;;;;;;;23.30;79.40;23.20;99135.00;;;;343621;28;96759;-90
2021/07/26 00:24:32;;;;;;;;;;;23.30;79.70;23.30;99129.00;;;;348771;27;82471;-90
2021/07/26 00:24:44;;;;;;;;;;;23.30;79.60;23.20;99131.00;;;;340921;28;96904;-90
2021/07/26 00:24:56;;;;;;;;;;;23.30;79.60;23.20;99135.00;;;;344180;28;83591;-90
2021/07/26 00:25:08;;;;;;;;;;;23.30;79.60;23.30;99137.00;;;;343889;28;95740;-90
2021/07/26 00:25:21;;;;;;;;;;;23.20;79.60;23.30;99135.00;;;;345594;28;82549;-90
2021/07/26 00:25:33;;;;;;;;;;;23.20;79.70;23.30;99129.00;;;;343811;28;96397;-90
2021/07/26 00:25:45;;;;;;;;;;;23.30;79.70;23.40;99131.00;;;;346037;28;82471;-91
2021/07/26 00:25:57;;;;;;;;;;;23.20;79.60;23.30;99124.00;;;;342683;28;95876;-90
2021/07/26 00:26:09;;;;;;;;;;;23.30;79.60;23.10;99129.00;;;;345627;28;83518;-91
2021/07/26 00:26:21;;;;;;;;;;;23.20;79.60;23.10;99136.00;;;;345191;28;96741;-90
2021/07/26 00:26:33;;;;;;;;;;;23.20;79.70;23.20;99129.00;;;;343260;28;83414;-90
2021/07/26 00:26:45;;;;;;;;;;;23.20;79.90;23.10;99134.00;;;;344833;28;97265;-90
2021/07/26 00:26:57;;;;;;;;;;;23.20;79.90;23.10;99129.00;;;;344683;28;82491;-90
2021/07/26 00:27:09;;;;;;;;;;;23.20;79.70;23.00;99131.00;;;;345262;28;95269;-90
2021/07/26 00:27:20;;;;;;;;;;;23.20;79.90;23.00;99134.00;;;;344675;28;83395;-90
2021/07/26 00:27:32;;;;;;;;;;;23.20;80.20;23.10;99128.00;;;;342465;28;95438;-90
2021/07/26 00:27:44;;;;;;;;;;;23.20;80.10;23.20;99126.00;;;;346204;28;83454;-91
2021/07/26 00:27:56;;;;;;;;;;;23.20;80.10;23.30;99136.00;;;;344780;28;95771;-91
2021/07/26 00:28:08;;;;;;;;;;;23.20;80.10;23.30;99136.00;;;;341817;28;83446;-90
2021/07/26 00:28:20;;;;;;;;;;;23.20;79.90;23.20;99127.00;;;;345063;28;96768;-90
2021/07/26 00:28:32;;;;;;;;;;;23.20;80.10;23.20;99123.00;;;;344646;28;82542;-90
2021/07/26 00:28:44;;;;;;;;;;;23.20;79.90;23.20;99135.00;;;;342449;28;96437;-90
2021/07/26 00:28:56;;;;;;;;;;;23.20;79.70;23.30;99131.00;;;;347249;28;83508;-91
2021/07/26 00:29:08;;;;;;;;;;;23.20;79.80;23.20;99127.00;;;;343661;28;96155;-90
2021/07/26 00:29:19;;;;;;;;;;;23.20;79.60;23.20;99131.00;;;;341934;28;83398;-90
2021/07/26 00:29:31;;;;;;;;;;;23.20;79.90;23.10;99123.00;;;;345048;28;97212;-90
2021/07/26 00:29:43;;;;;;;;;;;23.20;80.10;23.20;99124.00;;;;344617;28;83445;-90
2021/07/26 00:29:55;;;;;;;;;;;23.20;80.00;23.20;99126.00;;;;345290;28;92968;-90
2021/07/26 00:30:07;;;;;;;;;;;23.20;79.90;23.30;99130.00;;;;344617;28;83369;-90
2021/07/26 00:30:19;;;;;;;;;;;23.20;80.00;23.30;99127.00;;;;342266;28;96629;-91
2021/07/26 00:30:31;;;;;;;;;;;23.20;80.00;23.30;99126.00;;;;343264;28;82558;-90
2021/07/26 00:30:43;;;;;;;;;;;23.20;79.90;23.30;99123.00;;;;343735;28;96367;-90
2021/07/26 00:30:54;;;;;;;;;;;23.20;80.00;23.30;99125.00;;;;346628;28;83541;-89
2021/07/26 00:31:06;;;;;;;;;;;23.20;80.10;23.40;99125.00;;;;345084;28;95734;-90
2021/07/26 00:31:18;;;;;;;;;;;23.20;80.00;23.40;99134.00;;;;345114;28;83980;-90
2021/07/26 00:31:30;;;;;;;;;;;23.20;79.90;23.30;99125.00;;;;343648;28;96665;-90
2021/07/26 00:31:41;;;;;;;;;;;23.20;79.80;23.40;99131.00;;;;345777;28;83512;-90
2021/07/26 00:31:53;;;;;;;;;;;23.20;79.80;23.30;99126.00;;;;346493;28;95944;-91
2021/07/26 00:32:05;;;;;;;;;;;23.20;79.80;23.30;99131.00;;;;343341;28;83353;-90
2021/07/26 00:32:17;;;;;;;;;;;23.20;80.00;23.40;99132.00;;;;343775;28;94925;-91
2021/07/26 00:32:29;;;;;;;;;;;23.20;79.90;23.30;99135.00;;;;344486;28;84420;-90
2021/07/26 00:32:41;;;;;;;;;;;23.20;79.90;23.40;99127.00;;;;343594;28;97529;-89
2021/07/26 00:32:53;;;;;;;;;;;23.20;79.90;23.40;99131.00;;;;344366;28;83428;-90
2021/07/26 00:33:47;;;;;;;;;;;23.20;79.90;23.40;99125.00;;;;342287;28;96387;-90
2021/07/26 00:34:20;;;;;;;;;;;23.20;79.90;23.20;99131.00;;;;343018;28;83711;-90
2021/07/26 00:34:33;;;;;;;;;;;23.20;80.20;23.10;99133.00;;;;343703;28;95654;-91
2021/07/26 00:34:45;;;;;;;;;;;23.20;80.20;23.10;99128.00;;;;344458;28;82437;-90
2021/07/26 00:34:57;;;;;;;;;;;23.20;80.20;23.20;99120.00;;;;341201;28;95801;-91
2021/07/26 00:35:09;;;;;;;;;;;23.20;80.00;23.20;99125.00;;;;345665;28;83409;-91
2021/07/26 00:35:20;;;;;;;;;;;23.20;79.90;23.20;99121.00;;;;342529;28;95471;-90
2021/07/26 00:35:32;;;;;;;;;;;23.20;79.90;23.30;99128.00;;;;344595;28;83509;-90
2021/07/26 00:35:44;;;;;;;;;;;23.20;80.10;23.20;99125.00;;;;345155;28;97812;-90
2021/07/26 00:35:57;;;;;;;;;;;23.20;80.20;23.10;99124.00;;;;341925;28;83352;-90
2021/07/26 00:36:09;;;;;;;;;;;23.20;80.20;23.10;99125.00;;;;341214;28;95705;-90
2021/07/26 00:36:20;;;;;;;;;;;23.20;80.10;23.10;99119.00;;;;343171;28;83546;-90
2021/07/26 00:36:53;;;;;;;;;;;23.20;80.10;23.00;99126.00;;;;342509;28;96697;-90
2021/07/26 00:37:05;;;;;;;;;;;23.10;79.90;22.90;99122.00;;;;343134;28;82595;-90
2021/07/26 00:37:18;;;;;;;;;;;23.10;80.40;23.00;99121.00;;;;341998;28;96619;-90
2021/07/26 00:37:30;;;;;;;;;;;23.10;80.40;22.90;99121.00;;;;340382;28;82477;-90
2021/07/26 00:37:42;;;;;;;;;;;23.10;80.60;22.90;99124.00;;;;344980;28;97069;-90
2021/07/26 00:37:54;;;;;;;;;;;23.10;80.60;22.90;99127.00;;;;344556;28;82553;-90
2021/07/26 00:38:05;;;;;;;;;;;23.00;80.60;22.90;99122.00;;;;342413;28;98070;-90
2021/07/26 00:38:17;;;;;;;;;;;23.00;80.50;23.00;99122.00;;;;345934;28;83553;-90
2021/07/26 00:38:29;;;;;;;;;;;23.00;80.50;23.10;99118.00;;;;345228;28;95894;-90
2021/07/26 00:38:41;;;;;;;;;;;23.00;80.50;23.10;99121.00;;;;344763;28;83405;-90
2021/07/26 00:38:52;;;;;;;;;;;23.10;80.60;23.10;99114.00;;;;338144;28;96879;-89
2021/07/26 00:39:05;;;;;;;;;;;23.00;80.70;23.00;99119.00;;;;344692;28;83356;-90
2021/07/26 00:39:21;;;;;;;;;;;23.00;80.60;23.10;99126.00;;;;342485;28;96610;-90
2021/07/26 00:39:34;;;;;;;;;;;23.00;80.50;23.20;99113.00;;;;344582;28;82502;-90
2021/07/26 00:39:46;;;;;;;;;;;23.00;80.70;23.10;99118.00;;;;343748;28;96090;-90
2021/07/26 00:39:59;;;;;;;;;;;23.00;80.90;23.10;99115.00;;;;345674;28;83494;-91
2021/07/26 00:40:11;;;;;;;;;;;23.00;80.80;23.10;99117.00;;;;343796;28;96606;-90
2021/07/26 00:40:24;;;;;;;;;;;23.00;80.90;23.10;99111.00;;;;341885;28;83501;-91
2021/07/26 00:40:36;;;;;;;;;;;23.00;80.80;23.10;99113.00;;;;338294;28;95981;-90
2021/07/26 00:40:51;;;;;;;;;;;23.00;80.80;22.90;99113.00;;;;343160;28;83407;-90
2021/07/26 00:41:03;;;;;;;;;;;23.00;81.10;22.90;99111.00;;;;342247;28;96670;-90
2021/07/26 00:41:16;;;;;;;;;;;23.00;80.90;22.90;99122.00;;;;344712;28;83408;-90
2021/07/26 00:41:28;;;;;;;;;;;23.00;80.70;22.90;99115.00;;;;343742;28;97036;-90
2021/07/26 00:41:40;;;;;;;;;;;23.00;80.60;23.00;99120.00;;;;344574;28;83463;-90
2021/07/26 00:41:51;;;;;;;;;;;23.00;80.60;22.90;99117.00;;;;335724;28;94905;-90
2021/07/26 00:42:05;;;;;;;;;;;23.00;80.70;22.90;99122.00;;;;343364;28;82445;-90
2021/07/26 00:42:16;;;;;;;;;;;23.00;80.60;22.90;99109.00;;;;342495;28;96342;-90
2021/07/26 00:42:28;;;;;;;;;;;23.00;80.60;23.00;99120.00;;;;343310;28;83634;-90
2021/07/26 00:42:40;;;;;;;;;;;23.00;80.60;22.90;99120.00;;;;343852;28;95557;-90
2021/07/26 00:42:52;;;;;;;;;;;22.90;80.40;22.90;99116.00;;;;343515;28;83521;-91
2021/07/26 00:43:04;;;;;;;;;;;23.00;80.60;23.00;99118.00;;;;341942;28;95958;-89
2021/07/26 00:43:16;;;;;;;;;;;23.00;80.50;22.90;99115.00;;;;343084;28;83376;-91
2021/07/26 00:43:28;;;;;;;;;;;23.00;80.70;22.90;99118.00;;;;342262;28;97159;-90
2021/07/26 00:43:40;;;;;;;;;;;22.90;80.90;22.90;99118.00;;;;344523;28;83433;-90
2021/07/26 00:43:51;;;;;;;;;;;23.00;80.90;22.90;99123.00;;;;343750;28;95621;-90
2021/07/26 00:44:04;;;;;;;;;;;22.90;80.80;22.90;99118.00;;;;346126;28;83312;-90
2021/07/26 00:44:16;;;;;;;;;;;22.90;80.80;22.90;99119.00;;;;345163;28;96661;-90
2021/07/26 00:44:29;;;;;;;;;;;22.90;80.50;22.90;99117.00;;;;344569;28;83462;-90
2021/07/26 00:44:41;;;;;;;;;;;22.90;80.40;22.90;99108.00;;;;345197;28;96091;-90
2021/07/26 00:44:52;;;;;;;;;;;22.90;80.40;23.00;99121.00;;;;341907;28;82540;-90
2021/07/26 00:45:05;;;;;;;;;;;22.90;80.60;23.00;99113.00;;;;343759;28;96797;-91
2021/07/26 00:45:17;;;;;;;;;;;22.90;80.50;22.90;99113.00;;;;346008;28;83324;-90
2021/07/26 00:45:29;;;;;;;;;;;22.90;80.90;22.90;99117.00;;;;346586;28;95594;-90
2021/07/26 00:45:40;;;;;;;;;;;22.90;80.80;22.90;99115.00;;;;344413;28;82561;-90
2021/07/26 00:45:52;;;;;;;;;;;22.90;81.00;23.00;99115.00;;;;343090;28;95818;-90
2021/07/26 00:46:04;;;;;;;;;;;22.90;80.90;23.10;99123.00;;;;345536;28;83488;-90
2021/07/26 00:46:16;;;;;;;;;;;22.90;80.80;23.10;99119.00;;;;343604;28;97744;-90
2021/07/26 00:46:28;;;;;;;;;;;22.90;80.70;23.10;99122.00;;;;343151;28;83594;-90
2021/07/26 00:46:40;;;;;;;;;;;22.90;80.80;23.00;99125.00;;;;343891;28;95438;-90
2021/07/26 00:46:52;;;;;;;;;;;22.90;80.90;23.00;99121.00;;;;346844;28;83467;-90
2021/07/26 00:47:04;;;;;;;;;;;22.90;80.90;23.00;99115.00;;;;342503;28;95896;-90
2021/07/26 00:47:16;;;;;;;;;;;22.90;80.80;23.00;99114.00;;;;344579;28;83424;-91
2021/07/26 00:47:27;;;;;;;;;;;22.90;80.80;22.90;99115.00;;;;343942;28;96107;-91
2021/07/26 00:47:39;;;;;;;;;;;22.90;80.80;22.90;99116.00;;;;346415;28;83596;-91
2021/07/26 00:47:51;;;;;;;;;;;22.90;80.80;22.90;99124.00;;;;336078;28;96003;-90
2021/07/26 00:48:03;;;;;;;;;;;22.90;80.70;22.80;99117.00;;;;340948;28;82502;-90
2021/07/26 00:48:15;;;;;;;;;;;22.90;80.80;22.90;99121.00;;;;344138;28;97779;-90
2021/07/26 00:48:27;;;;;;;;;;;22.90;80.70;22.90;99121.00;;;;345080;28;83350;-90
2021/07/26 00:48:39;;;;;;;;;;;22.90;80.50;22.90;99119.00;;;;344307;28;96610;-90
2021/07/26 00:48:50;;;;;;;;;;;22.90;80.60;22.90;99120.00;;;;344779;28;83376;-90
2021/07/26 00:49:06;;;;;;;;;;;22.90;80.90;22.80;99124.00;;;;345317;28;96436;-90
2021/07/26 00:49:19;;;;;;;;;;;22.90;81.10;23.00;99126.00;;;;346390;28;83570;-90
2021/07/26 00:49:31;;;;;;;;;;;22.90;81.10;22.90;99128.00;;;;345145;28;96411;-90
2021/07/26 00:49:44;;;;;;;;;;;22.90;81.30;22.90;99118.00;;;;343844;28;82413;-90
2021/07/26 00:49:56;;;;;;;;;;;22.90;81.00;23.00;99120.00;;;;347133;28;96426;-90
2021/07/26 00:50:09;;;;;;;;;;;22.80;81.10;22.80;99131.00;;;;346515;28;82434;-90
2021/07/26 00:50:20;;;;;;;;;;;22.90;81.10;22.70;99115.00;;;;344277;28;96655;-89
2021/07/26 00:50:32;;;;;;;;;;;22.90;81.20;22.70;99122.00;;;;343894;28;82430;-90
2021/07/26 00:50:44;;;;;;;;;;;22.90;81.00;22.80;99115.00;;;;344493;28;95939;-91
2021/07/26 00:50:56;;;;;;;;;;;22.80;81.00;22.80;99123.00;;;;346402;28;83536;-90
2021/07/26 00:51:08;;;;;;;;;;;22.80;80.90;22.70;99116.00;;;;341694;28;97078;-90
2021/07/26 00:51:20;;;;;;;;;;;22.80;81.10;22.80;99113.00;;;;345305;28;83281;-90
2021/07/26 00:51:31;;;;;;;;;;;22.80;81.20;22.70;99125.00;;;;344343;28;96978;-91
2021/07/26 00:51:45;;;;;;;;;;;22.80;81.20;22.70;99121.00;;;;344746;28;83369;-90
2021/07/26 00:51:58;;;;;;;;;;;22.80;81.10;22.60;99120.00;;;;345625;28;96313;-91
2021/07/26 00:52:10;;;;;;;;;;;22.80;81.10;22.60;99120.00;;;;336742;28;82573;-90
2021/07/26 00:52:22;;;;;;;;;;;22.80;81.20;22.60;99119.00;;;;344245;28;96534;-90
2021/07/26 00:52:35;;;;;;;;;;;22.80;81.40;22.70;99122.00;;;;336974;28;82460;-91
2021/07/26 00:52:49;;;;;;;;;;;22.80;81.40;22.70;99114.00;;;;344270;28;96042;-89
2021/07/26 00:53:01;;;;;;;;;;;22.80;81.20;22.70;99115.00;;;;342341;28;83432;-90
2021/07/26 00:53:12;;;;;;;;;;;22.80;81.00;22.70;99117.00;;;;339100;28;96518;-90
2021/07/26 00:53:24;;;;;;;;;;;22.80;81.00;22.60;99113.00;;;;343814;28;82463;-90
2021/07/26 00:53:37;;;;;;;;;;;22.80;81.20;22.70;99116.00;;;;344394;28;95777;-90
2021/07/26 00:53:48;;;;;;;;;;;22.80;81.20;22.60;99117.00;;;;342557;28;82500;-90
2021/07/26 00:54:00;;;;;;;;;;;22.80;81.20;22.50;99118.00;;;;343112;28;96692;-91
2021/07/26 00:54:20;;;;;;;;;;;22.70;81.30;22.60;99111.00;;;;343848;28;82561;-91
2021/07/26 00:54:35;;;;;;;;;;;22.70;81.60;22.90;99114.00;;;;344119;28;97637;-90
2021/07/26 00:54:47;;;;;;;;;;;22.70;81.30;22.90;99115.00;;;;343448;28;85606;-91
2021/07/26 00:54:59;;;;;;;;;;;22.80;81.30;22.90;99112.00;;;;340362;28;96823;-90
2021/07/26 00:55:11;;;;;;;;;;;22.70;81.10;23.00;99114.00;;;;343422;28;82561;-90
2021/07/26 00:55:23;;;;;;;;;;;22.70;81.10;22.90;99116.00;;;;345305;28;95777;-91
2021/07/26 00:55:35;;;;;;;;;;;22.70;81.00;22.90;99120.00;;;;343181;28;83490;-90
2021/07/26 00:55:46;;;;;;;;;;;22.70;80.80;22.90;99118.00;;;;344049;28;96326;-91
2021/07/26 00:55:58;;;;;;;;;;;22.80;80.80;22.90;99113.00;;;;344784;28;83271;-90
2021/07/26 00:56:10;;;;;;;;;;;22.70;80.60;22.90;99118.00;;;;342509;28;95389;-90
2021/07/26 00:56:22;;;;;;;;;;;22.80;80.70;22.90;99120.00;;;;345921;28;83568;-90
2021/07/26 00:56:34;;;;;;;;;;;22.80;80.80;22.90;99113.00;;;;341039;28;96526;-89
2021/07/26 00:56:46;;;;;;;;;;;22.80;81.00;22.90;99118.00;;;;344610;28;82571;-90
2021/07/26 00:56:59;;;;;;;;;;;22.80;80.80;22.80;99114.00;;;;343918;28;96545;-90
2021/07/26 00:57:11;;;;;;;;;;;22.80;80.80;22.80;99114.00;;;;343226;28;83647;-89
2021/07/26 00:57:23;;;;;;;;;;;22.80;81.00;22.80;99117.00;;;;342415;28;97332;-90
2021/07/26 00:57:35;;;;;;;;;;;22.80;80.70;22.70;99116.00;;;;344472;28;82555;-90
2021/07/26 00:57:47;;;;;;;;;;;22.80;80.90;22.70;99110.00;;;;344057;28;96182;-91
2021/07/26 00:57:58;;;;;;;;;;;22.70;81.10;22.70;99116.00;;;;347055;28;83392;-90
2021/07/26 00:58:10;;;;;;;;;;;22.80;81.00;22.80;99112.00;;;;343831;28;95783;-90
2021/07/26 00:58:22;;;;;;;;;;;22.80;80.90;22.80;99114.00;;;;344735;28;82372;-91
2021/07/26 00:58:34;;;;;;;;;;;22.70;80.90;22.80;99116.00;;;;342390;28;97677;-91
2021/07/26 00:58:46;;;;;;;;;;;22.70;80.80;22.80;99118.00;;;;344507;28;83384;-90
2021/07/26 00:58:58;;;;;;;;;;;22.70;80.80;22.80;99122.00;;;;343758;28;96054;-90
2021/07/26 00:59:10;;;;;;;;;;;22.70;80.70;22.90;99118.00;;;;343199;28;83456;-90
2021/07/26 00:59:22;;;;;;;;;;;22.70;80.90;22.80;99118.00;;;;342431;28;97461;-90
2021/07/26 00:59:34;;;;;;;;;;;22.70;81.00;22.80;99115.00;;;;347416;28;83459;-91
2021/07/26 00:59:46;;;;;;;;;;;22.70;81.00;22.80;99114.00;;;;342363;28;96326;-90
2021/07/26 00:59:57;;;;;;;;;;;22.70;81.20;22.80;99120.00;;;;342024;28;83313;-90
2021/07/26 01:00:09;;;;;;;;;;;22.70;81.00;22.80;99113.00;;;;342277;28;96364;-90
2021/07/26 01:00:21;;;;;;;;;;;22.70;81.10;22.70;99119.00;;;;343223;28;83408;-90
2021/07/26 01:00:33;;;;;;;;;;;22.70;81.10;22.80;99112.00;;;;345164;28;97826;-90
2021/07/26 01:00:45;;;;;;;;;;;22.70;80.90;22.80;99119.00;;;;340045;28;82501;-90
2021/07/26 01:00:57;;;;;;;;;;;22.70;81.00;22.80;99120.00;;;;344639;28;96463;-90
2021/07/26 01:01:09;;;;;;;;;;;22.70;81.10;22.80;99120.00;;;;343376;28;82440;-90
2021/07/26 01:01:21;;;;;;;;;;;22.70;81.00;22.90;99121.00;;;;340842;28;96247;-90
2021/07/26 01:01:34;;;;;;;;;;;22.80;81.10;22.80;99112.00;;;;343162;28;82614;-90